createdAt,value
2018-08-20T00:04:19.704Z,711.27
2018-08-20T00:07:03.298Z,682.37
2018-08-20T00:09:46.662Z,646.27
2018-08-20T00:12:29.705Z,426.33
2018-08-20T00:15:08.802Z,500.57
2018-08-20T00:17:48.982Z,612.70
2018-08-20T00:20:32.543Z,648.57
2018-08-20T00:23:13.976Z,679.07
2018-08-20T00:25:57.598Z,645.33
2018-08-20T00:28:38.457Z,600.67
2018-08-20T01:54:49.960Z,113.63
2018-08-20T01:57:28.179Z,69.20
2018-08-20T02:00:09.879Z,103.80
2018-08-20T02:02:54.257Z,54.93
2018-08-20T02:05:36.721Z,69.37
2018-08-20T02:08:17.041Z,49.63
2018-08-20T02:10:55.979Z,58.07
2018-08-20T02:13:34.776Z,91.20
2018-08-20T02:16:14.618Z,97.97
2018-08-20T02:18:53.776Z,91.63
2018-08-20T02:21:32.203Z,40.67
2018-08-20T02:24:11.677Z,52.80
2018-08-20T02:26:52.797Z,48.27
2018-08-20T02:29:34.639Z,54.10
2018-08-20T03:58:58.910Z,363.10
2018-08-20T04:01:37.372Z,512.03
2018-08-20T04:04:18.698Z,495.17
2018-08-20T04:06:59.972Z,421.47
2018-08-20T04:09:42.275Z,467.80
2018-08-20T04:12:20.828Z,492.93
2018-08-20T04:15:02.043Z,435.93
2018-08-20T04:17:43.991Z,284.87
2018-08-20T04:20:26.709Z,311.37
2018-08-20T04:23:07.990Z,358.30
2018-08-20T04:25:51.337Z,358.37
2018-08-20T04:28:34.160Z,346.80
2018-08-20T04:31:14.577Z,354.20
2018-08-20T04:33:57.754Z,323.73
2018-08-20T04:36:38.573Z,362.73
2018-08-20T04:39:19.614Z,374.30
2018-08-20T04:42:00.143Z,390.90
2018-08-20T04:44:40.372Z,355.70
2018-08-20T04:47:26.491Z,477.80
2018-08-20T04:50:09.390Z,504.60
2018-08-20T04:52:49.072Z,519.33
2018-08-20T04:55:26.454Z,457.50
2018-08-20T04:58:09.869Z,250.20
2018-08-20T05:00:49.933Z,359.70
2018-08-20T05:03:30.999Z,329.33
2018-08-20T05:06:14.737Z,338.53
2018-08-20T05:08:54.431Z,367.53
2018-08-20T05:11:34.971Z,439.63
2018-08-20T05:14:16.497Z,474.10
2018-08-20T05:16:57.275Z,478.17
2018-08-20T05:19:37.271Z,439.77
2018-08-20T05:22:19.251Z,230.13
2018-08-20T05:24:58.957Z,393.20
2018-08-20T05:27:38.917Z,410.23
2018-08-20T05:30:18.763Z,458.23
2018-08-20T05:33:00.579Z,329.70
2018-08-20T05:35:41.880Z,311.70
2018-08-20T05:38:24.494Z,257.90
2018-08-20T05:41:04.176Z,252.23
2018-08-20T05:43:44.756Z,392.03
2018-08-20T05:46:24.523Z,314.60
2018-08-20T05:49:06.754Z,386.30
2018-08-20T05:51:48.775Z,476.10
2018-08-20T05:54:31.537Z,534.10
2018-08-20T05:57:10.673Z,445.90
2018-08-20T05:59:53.114Z,549.80
2018-08-20T06:02:32.673Z,662.07
2018-08-20T06:05:11.829Z,440.93
2018-08-20T06:07:51.806Z,694.93
2018-08-20T06:10:32.493Z,709.97
2018-08-20T06:13:16.035Z,702.97
2018-08-20T06:15:56.370Z,428.53
2018-08-20T06:18:36.513Z,676.80
2018-08-20T06:21:19.972Z,611.67
2018-08-20T06:24:03.658Z,487.50
2018-08-20T06:26:47.172Z,43.67
2018-08-20T06:29:28.715Z,69.30
2018-08-20T06:32:08.855Z,572.07
2018-08-20T06:34:51.094Z,522.53
2018-08-20T06:37:29.753Z,334.17
2018-08-20T06:40:10.796Z,302.97
2018-08-20T06:42:53.752Z,634.03
2018-08-20T06:45:35.949Z,999.90
2018-08-20T06:48:17.312Z,999.90
2018-08-20T06:50:57.815Z,999.90
2018-08-20T06:53:37.692Z,999.90
2018-08-20T06:56:16.299Z,999.90
2018-08-20T06:58:57.412Z,999.90
2018-08-20T07:01:38.974Z,999.90
2018-08-20T07:04:19.415Z,999.90
2018-08-20T07:06:56.945Z,999.90
2018-08-20T07:09:38.276Z,999.90
2018-08-20T07:12:16.018Z,999.90
2018-08-20T07:14:57.830Z,973.03
2018-08-20T07:17:41.612Z,999.90
2018-08-20T07:20:23.676Z,999.90
2018-08-20T07:23:06.071Z,999.90
2018-08-20T07:25:47.656Z,858.40
2018-08-20T07:28:35.855Z,999.90
2018-08-20T07:31:16.837Z,705.30
2018-08-20T07:33:57.712Z,940.80
2018-08-20T07:36:39.372Z,999.90
2018-08-20T07:39:20.380Z,738.77
2018-08-20T07:42:00.935Z,999.90
2018-08-20T07:44:41.932Z,999.90
2018-08-20T07:47:19.876Z,772.57
2018-08-20T07:50:05.051Z,427.73
2018-08-20T07:52:46.175Z,283.27
2018-08-20T07:55:29.977Z,639.80
2018-08-20T07:58:09.934Z,511.80
2018-08-20T08:00:52.752Z,556.53
2018-08-20T08:03:37.596Z,578.37
2018-08-20T08:06:21.356Z,116.95
2018-08-20T08:09:04.953Z,304.10
2018-08-20T08:11:45.033Z,419.45
2018-08-20T08:14:25.374Z,500.60
2018-08-20T08:17:04.835Z,854.83
2018-08-20T08:19:42.987Z,999.90
2018-08-20T08:22:26.456Z,999.90
2018-08-20T08:25:10.072Z,998.20
2018-08-20T08:27:48.633Z,917.75
2018-08-20T08:30:31.393Z,769.05
2018-08-20T09:32:39.543Z,569.37
2018-08-20T09:35:18.461Z,383.73
2018-08-20T10:16:41.942Z,680.95
2018-08-20T11:03:55.665Z,828.40
2018-08-20T11:06:34.857Z,780.13
2018-08-20T11:09:14.220Z,754.33
2018-08-20T11:11:53.340Z,735.87
2018-08-20T11:14:32.660Z,822.05
2018-08-20T11:17:20.319Z,894.30
2018-08-20T11:20:01.316Z,866.60
2018-08-20T11:22:40.568Z,869.33
2018-08-20T11:25:23.203Z,872.70
2018-08-20T11:28:01.364Z,872.70
2018-08-20T11:30:43.422Z,868.05
2018-08-20T11:33:22.941Z,854.10
2018-08-20T11:36:08.989Z,844.52
2018-08-20T11:38:53.366Z,846.63
2018-08-20T11:41:34.080Z,805.30
2018-08-20T11:44:14.297Z,836.50
2018-08-20T11:46:56.416Z,827.52
2018-08-20T11:49:41.641Z,822.40
2018-08-20T11:52:22.505Z,842.83
2018-08-20T11:55:04.320Z,786.88
2018-08-20T11:57:47.362Z,766.15
2018-08-20T12:00:28.665Z,758.05
2018-08-20T12:03:09.169Z,745.52
2018-08-20T12:05:50.201Z,756.33
2018-08-20T12:08:30.104Z,704.12
2018-08-20T12:11:14.441Z,702.20
2018-08-20T12:13:56.922Z,695.12
2018-08-20T12:16:38.160Z,695.75
2018-08-20T12:19:21.522Z,720.85
2018-08-20T12:22:08.119Z,633.87
2018-08-20T12:24:48.229Z,640.47
2018-08-20T13:09:12.853Z,307.35
2018-08-20T13:11:53.324Z,199.38
2018-08-20T13:14:34.423Z,225.47
2018-08-20T13:17:18.375Z,208.13
2018-08-20T13:20:02.063Z,197.57
2018-08-20T13:22:43.905Z,216.85
2018-08-20T13:25:26.466Z,244.28
2018-08-20T13:28:03.741Z,244.43
2018-08-20T13:30:45.401Z,219.43
2018-08-20T13:33:26.423Z,255.15
2018-08-20T13:36:09.680Z,195.28
2018-08-20T13:38:48.938Z,165.73
2018-08-20T13:41:30.482Z,152.15
2018-08-20T13:44:17.179Z,141.05
2018-08-20T13:47:00.663Z,133.30
2018-08-20T13:49:41.262Z,186.85
2018-08-20T13:52:21.907Z,158.75
2018-08-20T13:55:04.124Z,137.05
2018-08-20T13:57:51.302Z,99.32
2018-08-20T14:00:32.182Z,85.10
2018-08-20T14:03:15.934Z,185.30
2018-08-20T14:05:56.057Z,133.32
2018-08-20T14:08:42.219Z,165.52
2018-08-20T14:11:24.822Z,187.80
2018-08-20T14:14:11.202Z,134.67
2018-08-20T14:16:51.481Z,202.82
2018-08-20T14:19:32.662Z,197.93
2018-08-20T14:22:15.068Z,169.87
2018-08-20T14:24:56.066Z,236.87
2018-08-20T14:27:41.808Z,227.15
2018-08-20T14:30:22.961Z,234.72
2018-08-20T14:33:03.779Z,248.28
2018-08-20T14:35:45.585Z,295.70
2018-08-20T14:38:26.285Z,318.20
2018-08-20T14:41:12.381Z,302.98
2018-08-20T14:43:55.523Z,291.42
2018-08-20T14:46:38.998Z,311.60
2018-08-20T14:49:17.683Z,276.77
2018-08-20T14:51:59.211Z,264.05
2018-08-20T14:54:37.080Z,262.75
2018-08-20T14:57:15.883Z,269.30
2018-08-20T14:59:59.830Z,298.87
2018-08-20T15:02:42.660Z,311.77
2018-08-20T15:05:22.981Z,356.15
2018-08-20T15:08:07.366Z,263.52
2018-08-20T15:10:50.563Z,321.87
2018-08-20T15:13:29.060Z,283.90
2018-08-20T15:16:09.947Z,221.32
2018-08-20T15:18:52.721Z,237.48
2018-08-20T15:21:33.376Z,282.45
2018-08-20T15:24:23.221Z,231.07
2018-08-20T15:27:06.709Z,249.18
2018-08-20T15:29:46.938Z,249.65
2018-08-20T15:32:26.214Z,325.70
2018-08-20T15:35:07.163Z,374.45
2018-08-20T15:37:46.867Z,391.02
2018-08-20T15:40:27.044Z,407.82
2018-08-20T15:43:09.261Z,360.23
2018-08-20T15:45:47.863Z,325.32
2018-08-20T15:48:27.058Z,265.87
2018-08-20T15:51:09.058Z,247.90
2018-08-20T15:53:47.148Z,243.27
2018-08-20T15:56:30.378Z,99.58
2018-08-20T15:59:09.281Z,285.43
2018-08-20T16:01:50.822Z,527.00
2018-08-20T16:04:37.241Z,532.25
2018-08-20T16:07:17.842Z,387.80
2018-08-20T16:09:57.899Z,504.98
2018-08-20T16:12:41.207Z,477.32
2018-08-20T16:15:20.962Z,560.52
2018-08-20T16:18:01.664Z,787.52
2018-08-20T16:20:41.461Z,863.95
2018-08-20T16:23:20.959Z,886.33
2018-08-20T16:25:57.979Z,900.40
2018-08-20T16:28:39.601Z,940.42
2018-08-20T16:31:23.019Z,975.35
2018-08-20T16:34:07.004Z,999.90
2018-08-20T16:36:46.260Z,999.90
2018-08-20T16:39:24.866Z,968.55
2018-08-20T16:42:04.021Z,953.85
2018-08-20T16:44:43.381Z,938.48
2018-08-20T16:47:28.782Z,939.87
2018-08-20T16:50:08.199Z,920.75
2018-08-20T16:52:50.462Z,947.20
2018-08-20T16:55:30.669Z,932.32
2018-08-20T16:58:11.837Z,872.72
2018-08-20T17:00:50.582Z,999.90
2018-08-20T17:03:29.806Z,999.90
2018-08-20T17:06:08.024Z,993.17
2018-08-20T17:08:52.485Z,967.17
2018-08-20T17:11:31.919Z,976.00
2018-08-20T17:14:12.402Z,967.98
2018-08-20T17:16:50.697Z,930.85
2018-08-20T17:19:30.557Z,925.35
2018-08-20T17:22:11.564Z,886.90
2018-08-20T17:24:49.466Z,836.63
2018-08-20T17:27:27.839Z,784.75
2018-08-20T17:30:08.980Z,778.92
2018-08-20T17:32:51.064Z,747.27
2018-08-20T17:35:32.659Z,749.75
2018-08-20T17:38:13.699Z,757.40
2018-08-20T17:40:54.500Z,773.85
2018-08-20T17:43:34.906Z,773.23
2018-08-20T17:46:15.720Z,853.22
2018-08-20T17:48:55.464Z,801.02
2018-08-20T17:51:37.059Z,883.35
2018-08-20T17:54:16.560Z,885.90
2018-08-20T17:56:55.016Z,732.05
2018-08-20T17:59:33.761Z,999.90
2018-08-20T18:02:19.739Z,974.87
2018-08-20T18:05:01.566Z,853.52
2018-08-20T18:07:40.979Z,999.90
2018-08-20T18:10:22.560Z,999.90
2018-08-20T18:13:01.882Z,999.90
2018-08-20T18:15:45.961Z,999.90
2018-08-20T18:18:25.801Z,999.90
2018-08-20T18:21:05.900Z,999.90
2018-08-20T18:23:45.218Z,999.90
2018-08-20T18:26:24.540Z,999.90
2018-08-20T18:29:04.318Z,999.90
2018-08-20T18:31:46.817Z,999.90
2018-08-20T18:34:27.661Z,999.90
2018-08-20T18:37:12.980Z,992.68
2018-08-20T18:39:58.261Z,999.90
2018-08-20T18:42:42.222Z,999.90
2018-08-20T18:45:22.983Z,921.48
2018-08-20T18:48:06.019Z,999.90
2018-08-20T18:50:47.817Z,855.55
2018-08-20T18:53:30.261Z,970.83
2018-08-20T18:56:20.707Z,793.33
2018-08-20T18:59:00.663Z,749.02
2018-08-20T19:01:39.724Z,786.10
2018-08-20T19:04:20.802Z,751.42
2018-08-20T19:07:08.382Z,785.20
2018-08-20T19:09:52.983Z,786.62
2018-08-20T19:12:32.612Z,781.63
2018-08-20T19:15:28.644Z,793.97
2018-08-20T19:18:08.842Z,931.72
2018-08-20T19:20:50.981Z,757.10
2018-08-20T19:23:31.803Z,839.08
2018-08-20T19:26:11.683Z,826.67
2018-08-20T19:28:52.539Z,907.77
2018-08-20T19:31:32.059Z,784.25
2018-08-20T19:34:11.588Z,767.40
2018-08-20T19:36:52.704Z,803.15
2018-08-20T19:39:36.465Z,715.85
2018-08-20T19:42:23.903Z,631.20
2018-08-20T19:45:08.422Z,457.47
2018-08-20T19:47:50.328Z,523.85
2018-08-20T19:50:31.380Z,298.32
2018-08-20T19:53:15.319Z,311.93
2018-08-20T19:55:55.422Z,550.25
2018-08-20T19:58:38.683Z,656.25
2018-08-20T20:01:23.598Z,767.10
2018-08-20T20:04:05.743Z,661.73
2018-08-20T20:06:51.424Z,815.98
2018-08-20T20:09:33.358Z,762.48
2018-08-20T20:12:17.238Z,753.60
2018-08-20T20:15:02.858Z,871.60
2018-08-20T20:17:45.314Z,915.67
2018-08-20T20:20:27.681Z,933.63
2018-08-20T20:23:07.169Z,952.80
2018-08-20T20:25:46.381Z,944.57
2018-08-20T20:28:25.918Z,905.80
2018-08-20T20:31:06.438Z,927.65
2018-08-20T20:33:50.028Z,690.93
2018-08-20T20:36:34.372Z,897.37
2018-08-20T20:39:17.147Z,807.93
2018-08-20T20:41:58.141Z,882.73
2018-08-20T20:44:39.765Z,884.40
2018-08-20T20:47:19.741Z,737.75
2018-08-20T20:49:57.545Z,738.50
2018-08-20T20:52:35.231Z,746.97
2018-08-20T20:55:13.397Z,766.67
2018-08-20T20:57:52.380Z,785.27
2018-08-20T21:00:30.942Z,863.73
2018-08-20T21:03:15.463Z,947.67
2018-08-20T21:05:54.902Z,968.30
2018-08-20T21:08:41.626Z,999.90
2018-08-20T21:11:22.722Z,999.90
2018-08-20T21:14:00.447Z,999.90
2018-08-20T21:16:41.657Z,999.90
2018-08-20T21:19:22.679Z,999.90
2018-08-20T21:22:02.237Z,999.90
2018-08-20T21:24:40.719Z,999.90
2018-08-20T21:27:34.304Z,999.90
2018-08-20T21:30:15.422Z,999.90
2018-08-20T21:32:56.679Z,999.90
2018-08-20T21:35:36.304Z,999.90
2018-08-20T21:38:15.819Z,999.90
2018-08-20T21:40:56.001Z,999.90
2018-08-20T21:43:50.296Z,999.90
2018-08-20T21:46:29.557Z,966.83
2018-08-20T21:49:09.018Z,996.03
2018-08-20T21:51:51.796Z,790.57
2018-08-20T21:54:37.460Z,867.70
2018-08-20T21:57:16.963Z,655.47
2018-08-20T22:00:11.285Z,678.37
2018-08-20T22:02:56.824Z,706.70
2018-08-20T22:05:38.659Z,999.90
2018-08-20T22:08:20.523Z,999.90
2018-08-20T22:11:01.683Z,999.90
2018-08-20T22:13:39.258Z,999.90
2018-08-20T22:16:25.124Z,999.90
2018-08-20T22:19:07.738Z,999.90
2018-08-20T22:21:47.778Z,999.90
2018-08-20T22:24:27.320Z,999.90
2018-08-20T22:27:10.998Z,999.90
2018-08-20T22:29:53.772Z,999.90
2018-08-20T22:32:37.781Z,968.13
2018-08-20T22:35:21.680Z,961.00
2018-08-20T22:38:01.038Z,870.00
2018-08-20T22:40:40.999Z,754.93
2018-08-20T22:43:22.510Z,610.00
2018-08-20T22:46:02.517Z,381.70
2018-08-20T22:48:42.343Z,297.97
2018-08-20T22:51:23.560Z,468.07
2018-08-20T22:54:06.017Z,543.67
2018-08-20T22:56:45.959Z,684.77
2018-08-20T22:59:30.546Z,779.33
2018-08-20T23:02:09.141Z,765.70
2018-08-20T23:04:55.022Z,808.47
2018-08-20T23:07:36.923Z,722.73
2018-08-20T23:10:15.298Z,702.23
2018-08-20T23:13:00.462Z,773.27
2018-08-20T23:15:39.720Z,794.27
2018-08-20T23:18:22.123Z,761.03
2018-08-20T23:21:03.718Z,694.87
2018-08-20T23:23:44.956Z,577.17
2018-08-20T23:26:25.301Z,438.97
2018-08-20T23:29:06.500Z,477.20
2018-08-20T23:31:47.819Z,384.83
2018-08-20T23:34:31.105Z,258.30
2018-08-20T23:37:13.060Z,183.47
2018-08-20T23:39:51.840Z,170.93
2018-08-20T23:42:32.703Z,150.43
2018-08-20T23:45:12.104Z,142.13
2018-08-20T23:47:52.324Z,123.90
2018-08-20T23:50:31.959Z,122.13
2018-08-20T23:53:11.480Z,144.33
2018-08-20T23:55:49.136Z,133.50
2018-08-20T23:58:30.406Z,201.53
